createdAt,value
2022-08-16T00:00:47.606Z,20.27
2022-08-16T00:03:20.547Z,20.26
2022-08-16T00:05:57.849Z,20.15
2022-08-16T00:08:30.663Z,20.12
2022-08-16T00:11:07.427Z,20.24
2022-08-16T00:13:41.710Z,20.08
2022-08-16T00:17:01.435Z,20.22
2022-08-16T00:19:00.618Z,20.30
2022-08-16T00:21:29.467Z,20.16
2022-08-16T00:23:59.377Z,20.10
2022-08-16T00:26:36.037Z,20.29
2022-08-16T00:29:07.143Z,20.26
2022-08-16T00:31:59.903Z,19.99
2022-08-16T00:34:41.394Z,19.86
2022-08-16T00:37:17.217Z,19.77
2022-08-16T00:39:58.132Z,19.89
2022-08-16T00:42:32.341Z,20.06
2022-08-16T00:45:09.304Z,20.10
2022-08-16T00:47:49.388Z,19.97
2022-08-16T00:50:21.369Z,19.96
2022-08-16T00:52:51.006Z,19.97
2022-08-16T00:55:25.426Z,20.04
2022-08-16T00:58:12.920Z,20.02
2022-08-16T01:00:54.312Z,19.93
2022-08-16T01:03:31.677Z,19.87
2022-08-16T01:06:40.606Z,19.88
2022-08-16T01:09:00.191Z,19.72
2022-08-16T01:11:30.717Z,19.89
2022-08-16T01:14:09.194Z,19.67
2022-08-16T01:16:39.147Z,19.74
2022-08-16T01:19:19.428Z,19.59
2022-08-16T01:21:55.081Z,19.74
2022-08-16T01:24:45.295Z,19.62
2022-08-16T01:27:25.942Z,19.59
2022-08-16T01:30:03.528Z,19.86
2022-08-16T01:32:38.610Z,19.80
2022-08-16T01:35:17.749Z,19.64
2022-08-16T01:37:53.924Z,19.77
2022-08-16T01:40:31.159Z,19.85
2022-08-16T01:43:00.041Z,19.82
2022-08-16T01:45:40.304Z,19.71
2022-08-16T01:48:19.373Z,19.61
2022-08-16T01:51:08.365Z,19.67
2022-08-16T01:53:40.717Z,19.54
2022-08-16T01:56:24.855Z,19.52
2022-08-16T01:58:59.503Z,19.53
2022-08-16T02:01:29.964Z,19.57
2022-08-16T02:04:11.139Z,19.45
2022-08-16T02:06:46.785Z,19.46
2022-08-16T02:09:22.812Z,19.42
2022-08-16T02:11:59.076Z,19.41
2022-08-16T02:14:47.564Z,19.47
2022-08-16T02:17:15.865Z,19.53
2022-08-16T02:19:59.729Z,19.46
2022-08-16T02:22:34.833Z,19.48
2022-08-16T02:25:10.609Z,19.36
2022-08-16T02:27:43.010Z,19.46
2022-08-16T02:30:36.014Z,19.31
2022-08-16T02:33:05.564Z,19.35
2022-08-16T02:35:54.001Z,19.13
2022-08-16T02:38:27.474Z,19.13
2022-08-16T02:40:56.469Z,19.24
2022-08-16T02:43:29.251Z,19.19
2022-08-16T02:46:07.435Z,19.29
2022-08-16T02:48:38.508Z,19.26
2022-08-16T02:51:11.476Z,19.18
2022-08-16T02:53:47.767Z,19.35
2022-08-16T02:56:19.670Z,19.30
2022-08-16T02:58:52.949Z,19.41
2022-08-16T03:01:36.821Z,19.22
2022-08-16T03:04:41.435Z,19.40
2022-08-16T03:07:06.189Z,19.41
2022-08-16T03:09:44.283Z,19.33
2022-08-16T03:12:16.658Z,19.24
2022-08-16T03:14:48.206Z,19.24
2022-08-16T03:17:20.006Z,19.28
2022-08-16T03:19:59.653Z,19.27
2022-08-16T03:22:32.049Z,19.42
2022-08-16T03:25:07.659Z,19.30
2022-08-16T03:27:41.115Z,19.46
2022-08-16T03:30:19.983Z,19.45
2022-08-16T03:32:54.785Z,19.57
2022-08-16T03:35:33.177Z,19.48
2022-08-16T03:38:32.508Z,19.31
2022-08-16T03:41:17.151Z,19.34
2022-08-16T03:43:57.295Z,19.24
2022-08-16T03:46:48.448Z,19.38
2022-08-16T03:49:36.998Z,19.42
2022-08-16T03:52:07.685Z,19.45
2022-08-16T03:54:38.176Z,19.45
2022-08-16T03:57:22.832Z,19.64
2022-08-16T03:59:52.303Z,19.53
2022-08-16T04:02:31.509Z,19.54
2022-08-16T04:05:04.092Z,19.31
2022-08-16T04:07:33.784Z,19.44
2022-08-16T04:10:35.762Z,19.46
2022-08-16T04:13:04.680Z,19.35
2022-08-16T04:15:35.246Z,19.30
2022-08-16T04:18:22.692Z,19.38
2022-08-16T04:20:51.954Z,19.52
2022-08-16T04:23:24.728Z,19.55
2022-08-16T04:25:55.298Z,19.21
2022-08-16T04:28:52.093Z,19.19
2022-08-16T04:31:14.048Z,19.32
2022-08-16T04:33:51.166Z,19.45
2022-08-16T04:36:21.968Z,19.49
2022-08-16T04:38:50.720Z,19.64
2022-08-16T04:41:32.953Z,19.72
2022-08-16T04:44:30.940Z,19.64
2022-08-16T04:47:00.764Z,19.70
2022-08-16T04:49:38.461Z,19.85
2022-08-16T04:52:35.180Z,19.96
2022-08-16T04:55:06.130Z,19.94
2022-08-16T04:57:34.760Z,20.05
2022-08-16T05:00:32.809Z,20.07
2022-08-16T05:02:58.632Z,20.07
2022-08-16T05:05:30.618Z,19.84
2022-08-16T05:08:29.806Z,19.90
2022-08-16T05:11:05.513Z,20.03
2022-08-16T05:13:40.898Z,19.77
2022-08-16T05:16:19.947Z,19.78
2022-08-16T05:18:58.345Z,19.93
2022-08-16T05:21:38.179Z,19.96
2022-08-16T05:24:10.334Z,20.23
2022-08-16T05:26:43.237Z,20.61
2022-08-16T05:29:18.280Z,20.92
2022-08-16T05:32:02.444Z,21.06
2022-08-16T05:34:31.293Z,21.04
2022-08-16T05:37:01.754Z,20.84
2022-08-16T05:39:40.594Z,21.05
2022-08-16T05:42:09.834Z,20.80
2022-08-16T05:44:40.296Z,20.02
2022-08-16T05:47:15.104Z,20.31
2022-08-16T05:49:44.484Z,19.91
2022-08-16T05:52:21.407Z,20.09
2022-08-16T05:55:01.104Z,20.07
2022-08-16T05:57:35.557Z,20.03
2022-08-16T06:00:10.525Z,20.11
2022-08-16T06:02:42.546Z,20.29
2022-08-16T06:05:41.459Z,20.21
2022-08-16T06:08:30.859Z,20.21
2022-08-16T06:11:09.494Z,20.16
2022-08-16T06:13:42.229Z,20.38
2022-08-16T06:16:18.369Z,20.32
2022-08-16T06:18:50.540Z,20.39
2022-08-16T06:21:22.773Z,20.42
2022-08-16T06:23:58.184Z,20.33
2022-08-16T06:26:34.730Z,20.22
2022-08-16T06:29:08.022Z,20.41
2022-08-16T06:31:48.889Z,20.55
2022-08-16T06:34:54.980Z,20.64
2022-08-16T06:37:09.439Z,20.69
2022-08-16T06:39:49.270Z,20.53
2022-08-16T06:42:47.849Z,20.66
2022-08-16T06:45:38.256Z,20.72
2022-08-16T06:48:18.848Z,20.76
2022-08-16T06:50:50.139Z,21.10
2022-08-16T06:53:20.083Z,20.98
2022-08-16T06:56:13.927Z,21.24
2022-08-16T06:59:01.177Z,21.29
2022-08-16T07:01:44.500Z,21.33
2022-08-16T07:04:31.761Z,21.30
2022-08-16T07:07:09.742Z,21.55
2022-08-16T07:09:40.071Z,21.83
2022-08-16T07:12:12.503Z,21.83
2022-08-16T07:14:48.509Z,21.92
2022-08-16T07:17:21.497Z,21.84
2022-08-16T07:20:03.693Z,21.96
2022-08-16T07:22:52.756Z,22.02
2022-08-16T07:25:40.260Z,22.36
2022-08-16T07:28:20.792Z,22.12
2022-08-16T07:30:53.879Z,22.40
2022-08-16T07:33:52.243Z,22.67
2022-08-16T07:36:29.036Z,22.71
2022-08-16T07:38:59.526Z,22.82
2022-08-16T07:41:31.657Z,22.83
2022-08-16T07:44:15.403Z,22.86
2022-08-16T07:46:46.003Z,22.96
2022-08-16T07:49:23.232Z,23.00
2022-08-16T07:51:54.411Z,23.06
2022-08-16T07:54:37.847Z,23.21
2022-08-16T07:57:12.125Z,23.23
2022-08-16T07:59:46.382Z,23.61
2022-08-16T08:02:20.526Z,23.71
2022-08-16T08:04:55.301Z,23.65
2022-08-16T08:07:28.280Z,23.30
2022-08-16T08:09:59.221Z,23.68
2022-08-16T08:12:32.383Z,23.51
2022-08-16T08:15:10.518Z,23.90
2022-08-16T08:17:42.884Z,23.73
2022-08-16T08:20:26.615Z,23.95
2022-08-16T08:23:03.087Z,23.91
2022-08-16T08:25:55.241Z,24.08
2022-08-16T08:28:27.704Z,24.21
2022-08-16T08:31:08.907Z,24.25
2022-08-16T08:33:43.785Z,24.40
2022-08-16T08:36:25.278Z,24.36
2022-08-16T08:39:12.962Z,24.28
2022-08-16T08:41:43.622Z,24.32
2022-08-16T08:44:28.799Z,23.99
2022-08-16T08:47:09.363Z,24.05
2022-08-16T08:49:46.084Z,24.19
2022-08-16T08:52:34.273Z,24.26
2022-08-16T08:55:10.501Z,24.44
2022-08-16T08:57:41.358Z,24.40
2022-08-16T09:00:30.210Z,24.81
2022-08-16T09:03:04.379Z,24.84
2022-08-16T09:05:37.436Z,24.85
2022-08-16T09:08:09.344Z,25.29
2022-08-16T09:10:46.861Z,25.47
2022-08-16T09:13:28.578Z,25.44
2022-08-16T09:16:01.594Z,25.50
2022-08-16T09:18:35.668Z,25.63
2022-08-16T09:21:09.466Z,25.76
2022-08-16T09:23:39.943Z,26.41
2022-08-16T09:26:43.926Z,26.00
2022-08-16T09:29:14.774Z,25.98
2022-08-16T09:31:47.230Z,26.49
2022-08-16T09:34:23.518Z,26.30
2022-08-16T09:36:54.546Z,26.62
2022-08-16T09:39:23.181Z,26.09
2022-08-16T09:41:53.384Z,26.23
2022-08-16T09:45:10.596Z,26.97
2022-08-16T09:47:14.025Z,27.00
2022-08-16T09:49:43.769Z,26.79
2022-08-16T09:52:20.275Z,26.89
2022-08-16T09:54:50.742Z,26.80
2022-08-16T09:57:19.240Z,27.42
2022-08-16T09:59:56.467Z,27.01
2022-08-16T10:02:27.576Z,27.04
2022-08-16T10:04:59.064Z,27.76
2022-08-16T10:07:44.536Z,27.77
2022-08-16T10:10:18.850Z,27.16
2022-08-16T10:13:14.475Z,27.71
2022-08-16T10:15:55.759Z,27.60
2022-08-16T10:18:54.012Z,27.57
2022-08-16T10:21:15.855Z,27.75
2022-08-16T10:23:44.249Z,28.08
2022-08-16T10:27:16.796Z,28.16
2022-08-16T10:29:04.899Z,28.34
2022-08-16T10:31:44.662Z,28.08
2022-08-16T10:34:31.794Z,28.21
2022-08-16T10:37:03.357Z,28.66
2022-08-16T10:39:32.957Z,28.67
2022-08-16T10:42:10.597Z,28.68
2022-08-16T10:44:42.777Z,28.57
2022-08-16T10:47:22.364Z,27.82
2022-08-16T10:49:50.684Z,28.74
2022-08-16T10:52:20.565Z,28.14
2022-08-16T10:54:59.996Z,28.24
2022-08-16T10:57:41.549Z,28.16
2022-08-16T11:00:21.103Z,28.37
2022-08-16T11:02:57.740Z,28.97
2022-08-16T11:05:59.002Z,29.42
2022-08-16T11:08:35.260Z,29.07
2022-08-16T11:11:11.760Z,28.55
2022-08-16T11:13:58.774Z,29.24
2022-08-16T11:19:18.177Z,29.91
2022-08-16T11:24:43.696Z,28.83
2022-08-16T11:27:20.538Z,29.46
2022-08-16T11:29:52.254Z,29.24
2022-08-16T11:32:30.078Z,28.92
2022-08-16T11:35:14.299Z,28.47
2022-08-16T11:40:44.653Z,28.38
2022-08-16T11:43:16.760Z,28.27
2022-08-16T11:45:54.135Z,28.51
2022-08-16T11:48:26.013Z,28.38
2022-08-16T11:50:55.337Z,28.40
2022-08-16T11:53:25.001Z,27.92
2022-08-16T11:55:56.374Z,28.07
2022-08-16T11:58:26.108Z,28.30
2022-08-16T12:00:59.084Z,28.22
2022-08-16T12:03:35.095Z,28.42
2022-08-16T12:06:11.285Z,28.67
2022-08-16T12:08:57.468Z,28.09
2022-08-16T12:11:32.089Z,28.17
2022-08-16T12:14:04.240Z,28.61
2022-08-16T12:16:34.733Z,28.67
2022-08-16T12:19:04.469Z,29.58
2022-08-16T12:21:35.882Z,30.48
2022-08-16T12:24:23.952Z,30.32
2022-08-16T12:26:54.554Z,30.04
2022-08-16T12:29:24.971Z,28.45
2022-08-16T12:32:01.687Z,28.56
2022-08-16T12:34:50.509Z,29.06
2022-08-16T12:37:24.440Z,28.50
2022-08-16T12:39:54.948Z,28.33
2022-08-16T12:42:35.217Z,29.14
2022-08-16T12:45:05.931Z,28.93
2022-08-16T12:47:55.120Z,29.47
2022-08-16T12:50:33.228Z,29.62
2022-08-16T12:53:03.504Z,29.96
2022-08-16T12:55:33.617Z,29.96
2022-08-16T12:58:13.757Z,29.70
2022-08-16T13:01:01.565Z,28.59
2022-08-16T13:03:32.452Z,29.04
2022-08-16T13:06:08.935Z,28.92
2022-08-16T13:08:37.881Z,28.96
2022-08-16T13:11:08.049Z,28.75
2022-08-16T13:13:38.140Z,29.07
2022-08-16T13:16:20.110Z,29.36
2022-08-16T13:18:52.413Z,29.42
2022-08-16T13:21:24.152Z,29.40
2022-08-16T13:23:55.379Z,29.57
2022-08-16T13:26:26.272Z,29.71
2022-08-16T13:28:56.843Z,29.54
2022-08-16T13:31:25.120Z,29.93
2022-08-16T13:33:58.543Z,30.41
2022-08-16T13:39:17.971Z,30.61
2022-08-16T13:41:54.054Z,30.88
2022-08-16T13:44:48.687Z,30.97
2022-08-16T13:47:12.991Z,29.89
2022-08-16T13:49:43.336Z,29.19
2022-08-16T13:52:12.726Z,29.62
2022-08-16T13:54:41.164Z,29.60
2022-08-16T13:57:11.896Z,29.75
2022-08-16T13:59:43.326Z,30.32
2022-08-16T14:02:14.261Z,30.30
2022-08-16T14:04:44.062Z,30.47
2022-08-16T14:07:20.015Z,30.46
2022-08-16T14:09:55.203Z,30.38
2022-08-16T14:12:27.581Z,30.81
2022-08-16T14:14:58.939Z,30.92
2022-08-16T14:17:28.654Z,31.04
2022-08-16T14:19:59.771Z,31.08
2022-08-16T14:22:35.582Z,30.77
2022-08-16T14:25:10.488Z,30.80
2022-08-16T14:27:42.152Z,30.49
2022-08-16T14:30:15.834Z,30.03
2022-08-16T14:32:46.924Z,30.07
2022-08-16T14:35:29.208Z,30.36
2022-08-16T14:38:06.474Z,30.06
2022-08-16T14:40:35.509Z,29.99
2022-08-16T14:43:07.123Z,29.48
2022-08-16T14:45:37.283Z,29.66
2022-08-16T14:48:06.917Z,29.87
2022-08-16T14:50:36.509Z,29.48
2022-08-16T14:53:09.547Z,29.71
2022-08-16T14:55:41.092Z,29.93
2022-08-16T14:58:18.814Z,30.30
2022-08-16T15:00:51.004Z,29.58
2022-08-16T15:03:23.329Z,29.52
2022-08-16T15:05:53.978Z,29.83
2022-08-16T15:08:36.836Z,30.06
2022-08-16T15:11:07.757Z,30.11
2022-08-16T15:13:36.701Z,29.48
2022-08-16T15:16:07.496Z,30.08
2022-08-16T15:18:36.321Z,29.80
2022-08-16T15:21:08.434Z,29.39
2022-08-16T15:23:40.416Z,29.15
2022-08-16T15:26:11.565Z,29.57
2022-08-16T15:28:57.911Z,30.21
2022-08-16T15:31:28.435Z,30.29
2022-08-16T15:33:58.344Z,30.65
2022-08-16T15:36:28.102Z,31.05
2022-08-16T15:39:07.045Z,30.75
2022-08-16T15:42:02.941Z,30.31
2022-08-16T15:44:44.638Z,30.44
2022-08-16T15:47:25.734Z,31.00
2022-08-16T15:49:55.994Z,31.38
2022-08-16T15:52:30.385Z,31.22
2022-08-16T15:55:07.567Z,31.28
2022-08-16T15:57:41.864Z,31.48
2022-08-16T16:00:15.173Z,31.21
2022-08-16T16:02:46.743Z,31.42
2022-08-16T16:05:19.121Z,31.47
2022-08-16T16:07:56.453Z,31.15
2022-08-16T16:10:29.460Z,30.95
2022-08-16T16:13:01.691Z,30.98
2022-08-16T16:15:35.091Z,30.31
2022-08-16T16:18:09.705Z,29.82
2022-08-16T16:20:43.596Z,29.98
2022-08-16T16:23:12.419Z,29.90
2022-08-16T16:25:44.531Z,29.82
2022-08-16T16:29:04.319Z,29.71
2022-08-16T16:31:07.451Z,30.18
2022-08-16T16:33:39.852Z,30.35
2022-08-16T16:36:11.224Z,30.30
2022-08-16T16:38:42.727Z,30.47
2022-08-16T16:41:11.678Z,30.79
2022-08-16T16:43:43.703Z,30.94
2022-08-16T16:46:40.690Z,30.40
2022-08-16T16:49:08.732Z,29.64
2022-08-16T16:51:47.079Z,29.85
2022-08-16T16:54:27.425Z,29.55
2022-08-16T16:56:57.973Z,29.60
2022-08-16T16:59:28.217Z,29.49
2022-08-16T17:02:01.517Z,29.39
2022-08-16T17:04:49.037Z,29.47
2022-08-16T17:07:20.579Z,29.60
2022-08-16T17:09:53.387Z,29.54
2022-08-16T17:12:46.604Z,29.65
2022-08-16T17:15:11.506Z,29.59
2022-08-16T17:18:00.157Z,29.51
2022-08-16T17:20:30.726Z,29.47
2022-08-16T17:22:59.607Z,29.63
2022-08-16T17:25:36.518Z,29.66
2022-08-16T17:28:58.652Z,29.57
2022-08-16T17:30:54.427Z,29.24
2022-08-16T17:33:23.564Z,29.28
2022-08-16T17:35:55.386Z,29.21
2022-08-16T17:38:38.539Z,29.08
2022-08-16T17:41:09.688Z,29.02
2022-08-16T17:43:44.507Z,28.99
2022-08-16T17:46:50.636Z,29.16
2022-08-16T17:49:08.073Z,29.11
2022-08-16T17:51:38.191Z,29.02
2022-08-16T17:54:07.354Z,28.95
2022-08-16T17:56:46.895Z,28.79
2022-08-16T17:59:16.139Z,28.64
2022-08-16T18:01:46.348Z,28.65
2022-08-16T18:04:49.318Z,28.72
2022-08-16T18:07:07.049Z,28.80
2022-08-16T18:09:35.557Z,28.73
2022-08-16T18:12:23.970Z,28.78
2022-08-16T18:15:06.006Z,28.89
2022-08-16T18:17:34.939Z,28.85
2022-08-16T18:20:04.583Z,28.65
2022-08-16T18:22:34.107Z,28.50
2022-08-16T18:25:02.658Z,28.40
2022-08-16T18:27:32.581Z,28.47
2022-08-16T18:30:01.485Z,28.39
2022-08-16T18:32:30.220Z,28.16
2022-08-16T18:34:58.708Z,28.06
2022-08-16T18:37:26.973Z,27.95
2022-08-16T18:39:56.864Z,27.97
2022-08-16T18:42:26.600Z,28.01
2022-08-16T18:44:54.843Z,28.07
2022-08-16T18:47:23.518Z,27.97
2022-08-16T18:49:51.974Z,28.00
2022-08-16T18:52:25.270Z,27.82
2022-08-16T18:55:01.969Z,27.75
2022-08-16T18:57:42.843Z,27.53
2022-08-16T19:00:13.509Z,27.47
2022-08-16T19:02:58.174Z,27.26
2022-08-16T19:05:30.853Z,27.26
2022-08-16T19:08:00.845Z,27.35
2022-08-16T19:10:31.786Z,27.32
2022-08-16T19:13:01.116Z,27.13
2022-08-16T19:15:30.151Z,27.11
2022-08-16T19:17:59.425Z,26.74
2022-08-16T19:20:30.642Z,26.91
2022-08-16T19:23:05.667Z,26.78
2022-08-16T19:25:47.395Z,26.84
2022-08-16T19:28:50.784Z,26.86
2022-08-16T19:31:15.486Z,26.47
2022-08-16T19:33:54.449Z,26.26
2022-08-16T19:36:31.706Z,26.26
2022-08-16T19:39:06.064Z,26.09
2022-08-16T19:41:39.426Z,26.26
2022-08-16T19:44:09.437Z,26.12
2022-08-16T19:46:38.534Z,25.85
2022-08-16T19:49:07.693Z,25.58
2022-08-16T19:51:37.608Z,25.65
2022-08-16T19:54:06.661Z,25.49
2022-08-16T19:56:37.045Z,25.43
2022-08-16T19:59:22.391Z,25.38
2022-08-16T20:01:54.248Z,25.25
2022-08-16T20:04:24.510Z,25.53
2022-08-16T20:06:54.633Z,25.63
2022-08-16T20:09:24.578Z,25.75
2022-08-16T20:11:55.684Z,25.53
2022-08-16T20:14:26.479Z,25.48
2022-08-16T20:16:58.015Z,25.22
2022-08-16T20:19:27.661Z,25.37
2022-08-16T20:22:01.634Z,25.04
2022-08-16T20:24:35.087Z,24.96
2022-08-16T20:27:09.644Z,25.23
2022-08-16T20:29:41.121Z,25.39
2022-08-16T20:32:14.067Z,25.42
2022-08-16T20:34:43.801Z,25.46
2022-08-16T20:37:12.854Z,25.47
2022-08-16T20:39:44.395Z,25.12
2022-08-16T20:42:16.531Z,25.36
2022-08-16T20:44:45.894Z,25.47
2022-08-16T20:47:14.598Z,25.35
2022-08-16T20:49:43.286Z,25.15
2022-08-16T20:52:14.958Z,25.31
2022-08-16T20:54:44.179Z,25.43
2022-08-16T20:57:15.365Z,25.01
2022-08-16T20:59:49.410Z,24.84
2022-08-16T21:02:25.812Z,24.86
2022-08-16T21:04:54.651Z,24.85
2022-08-16T21:07:23.736Z,24.61
2022-08-16T21:09:52.175Z,24.64
2022-08-16T21:12:21.936Z,24.69
2022-08-16T21:14:50.784Z,24.68
2022-08-16T21:17:19.315Z,24.80
2022-08-16T21:19:47.968Z,24.61
2022-08-16T21:22:20.447Z,24.73
2022-08-16T21:24:54.117Z,24.89
2022-08-16T21:27:24.828Z,24.80
2022-08-16T21:29:54.740Z,24.81
2022-08-16T21:32:35.106Z,24.58
2022-08-16T21:35:10.419Z,24.49
2022-08-16T21:37:39.678Z,24.54
2022-08-16T21:40:11.125Z,24.34
2022-08-16T21:42:44.389Z,23.90
2022-08-16T21:45:16.478Z,23.95
2022-08-16T21:47:45.180Z,23.91
2022-08-16T21:50:15.373Z,23.91
2022-08-16T21:52:44.451Z,23.97
2022-08-16T21:55:13.285Z,24.18
2022-08-16T21:57:43.300Z,24.12
2022-08-16T22:00:15.079Z,24.06
2022-08-16T22:02:45.691Z,23.94
2022-08-16T22:05:17.906Z,23.93
2022-08-16T22:07:46.766Z,23.74
2022-08-16T22:10:44.799Z,23.78
2022-08-16T22:13:07.831Z,23.66
2022-08-16T22:15:37.006Z,23.42
2022-08-16T22:18:06.772Z,23.36
2022-08-16T22:20:35.136Z,23.29
2022-08-16T22:23:09.276Z,23.46
2022-08-16T22:25:39.009Z,23.39
2022-08-16T22:28:09.009Z,23.55
2022-08-16T22:30:37.959Z,23.46
2022-08-16T22:33:10.612Z,23.45
2022-08-16T22:35:44.767Z,23.26
2022-08-16T22:38:54.700Z,22.96
2022-08-16T22:41:04.590Z,23.02
2022-08-16T22:43:35.436Z,22.84
2022-08-16T22:46:04.924Z,22.97
2022-08-16T22:48:41.231Z,22.96
2022-08-16T22:51:11.322Z,22.83
2022-08-16T22:53:40.257Z,22.79
2022-08-16T22:56:08.674Z,22.79
2022-08-16T22:58:38.510Z,22.79
2022-08-16T23:01:09.182Z,22.45
2022-08-16T23:03:38.596Z,22.55
2022-08-16T23:06:08.233Z,22.74
2022-08-16T23:08:40.967Z,22.79
2022-08-16T23:11:12.993Z,22.44
2022-08-16T23:13:52.783Z,22.33
2022-08-16T23:16:33.700Z,21.80
2022-08-16T23:19:05.281Z,22.00
2022-08-16T23:21:37.175Z,22.05
2022-08-16T23:24:07.962Z,22.21
2022-08-16T23:26:45.969Z,22.33
2022-08-16T23:29:23.608Z,22.38
2022-08-16T23:31:55.706Z,22.56
2022-08-16T23:34:24.614Z,22.56
2022-08-16T23:36:53.309Z,22.39
2022-08-16T23:39:21.848Z,22.40
2022-08-16T23:41:50.257Z,22.57
2022-08-16T23:44:55.275Z,22.52
2022-08-16T23:47:09.512Z,22.62
2022-08-16T23:50:00.233Z,22.47
2022-08-16T23:52:53.119Z,22.27
2022-08-16T23:55:17.096Z,22.07
2022-08-16T23:57:47.058Z,21.91
